sensor_id;sensor_type;location;lat;lon;timestamp;temperature;humidity
51837;DHT22;38941;53.254;6.600;2023-04-19T00:01:10;7.50;99.90
51837;DHT22;38941;53.254;6.600;2023-04-19T00:03:11;8.90;99.90
51837;DHT22;38941;53.254;6.600;2023-04-19T00:05:14;8.40;99.90
51837;DHT22;38941;53.254;6.600;2023-04-19T00:07:17;8.30;99.90
51837;DHT22;38941;53.254;6.600;2023-04-19T00:09:18;8.30;99.90
51837;DHT22;38941;53.254;6.600;2023-04-19T00:11:19;8.30;99.90
51837;DHT22;38941;53.254;6.600;2023-04-19T00:13:20;8.30;99.90
51837;DHT22;38941;53.254;6.600;2023-04-19T00:15:22;8.60;99.90
51837;DHT22;38941;53.254;6.600;2023-04-19T00:17:23;8.40;99.90
51837;DHT22;38941;53.254;6.600;2023-04-19T00:19:24;8.40;99.90
51837;DHT22;38941;53.254;6.600;2023-04-19T00:21:25;8.30;99.90
51837;DHT22;38941;53.254;6.600;2023-04-19T00:23:27;8.40;99.90
51837;DHT22;38941;53.254;6.600;2023-04-19T00:25:29;8.30;99.90
51837;DHT22;38941;53.254;6.600;2023-04-19T00:27:32;8.30;99.90
51837;DHT22;38941;53.254;6.600;2023-04-19T00:29:33;8.20;99.90
51837;DHT22;38941;53.254;6.600;2023-04-19T00:31:34;8.30;99.90
51837;DHT22;38941;53.254;6.600;2023-04-19T00:33:36;8.20;99.90
51837;DHT22;38941;53.254;6.600;2023-04-19T00:35:41;8.20;99.90
51837;DHT22;38941;53.254;6.600;2023-04-19T00:37:42;8.20;99.90
51837;DHT22;38941;53.254;6.600;2023-04-19T00:39:43;8.10;99.90
51837;DHT22;38941;53.254;6.600;2023-04-19T00:41:46;7.80;99.90
51837;DHT22;38941;53.254;6.600;2023-04-19T00:43:47;8.10;99.90
51837;DHT22;38941;53.254;6.600;2023-04-19T00:45:48;8.10;99.90
51837;DHT22;38941;53.254;6.600;2023-04-19T00:47:52;8.20;99.90
51837;DHT22;38941;53.254;6.600;2023-04-19T00:49:53;8.10;99.90
51837;DHT22;38941;53.254;6.600;2023-04-19T00:51:55;8.00;99.90
51837;DHT22;38941;53.254;6.600;2023-04-19T00:53:57;6.60;99.90
51837;DHT22;38941;53.254;6.600;2023-04-19T00:56:01;8.40;99.90
51837;DHT22;38941;53.254;6.600;2023-04-19T00:58:06;7.80;99.90
51837;DHT22;38941;53.254;6.600;2023-04-19T01:00:09;8.20;99.90
51837;DHT22;38941;53.254;6.600;2023-04-19T01:02:10;7.70;99.90
51837;DHT22;38941;53.254;6.600;2023-04-19T01:04:12;7.60;99.90
51837;DHT22;38941;53.254;6.600;2023-04-19T01:06:16;7.70;99.90
51837;DHT22;38941;53.254;6.600;2023-04-19T01:08:18;7.70;99.90
51837;DHT22;38941;53.254;6.600;2023-04-19T01:10:19;7.60;99.90
51837;DHT22;38941;53.254;6.600;2023-04-19T01:12:19;7.60;99.90
51837;DHT22;38941;53.254;6.600;2023-04-19T01:14:21;7.20;99.90
51837;DHT22;38941;53.254;6.600;2023-04-19T01:16:25;7.60;99.90
51837;DHT22;38941;53.254;6.600;2023-04-19T01:18:27;7.60;99.90
51837;DHT22;38941;53.254;6.600;2023-04-19T01:20:33;8.40;99.90
51837;DHT22;38941;53.254;6.600;2023-04-19T01:22:35;7.50;99.90
51837;DHT22;38941;53.254;6.600;2023-04-19T01:24:37;8.00;99.90
51837;DHT22;38941;53.254;6.600;2023-04-19T01:26:37;7.70;99.90
51837;DHT22;38941;53.254;6.600;2023-04-19T01:28:39;7.60;99.90
51837;DHT22;38941;53.254;6.600;2023-04-19T01:30:41;7.40;99.90
51837;DHT22;38941;53.254;6.600;2023-04-19T01:32:48;7.40;99.90
51837;DHT22;38941;53.254;6.600;2023-04-19T01:34:50;7.40;99.90
51837;DHT22;38941;53.254;6.600;2023-04-19T01:36:53;6.50;99.90
51837;DHT22;38941;53.254;6.600;2023-04-19T01:38:54;7.40;99.90
51837;DHT22;38941;53.254;6.600;2023-04-19T01:40:55;7.30;99.90
51837;DHT22;38941;53.254;6.600;2023-04-19T01:42:59;7.30;99.90
51837;DHT22;38941;53.254;6.600;2023-04-19T01:45:00;8.90;99.90
51837;DHT22;38941;53.254;6.600;2023-04-19T01:47:03;7.20;99.90
51837;DHT22;38941;53.254;6.600;2023-04-19T01:49:05;7.20;99.90
51837;DHT22;38941;53.254;6.600;2023-04-19T01:51:07;7.20;99.90
51837;DHT22;38941;53.254;6.600;2023-04-19T01:53:08;7.20;99.90
51837;DHT22;38941;53.254;6.600;2023-04-19T01:55:09;7.20;99.90
51837;DHT22;38941;53.254;6.600;2023-04-19T01:57:10;7.10;99.90
51837;DHT22;38941;53.254;6.600;2023-04-19T01:59:12;7.20;99.90
51837;DHT22;38941;53.254;6.600;2023-04-19T02:01:13;7.10;99.90
51837;DHT22;38941;53.254;6.600;2023-04-19T02:03:14;6.40;99.90
51837;DHT22;38941;53.254;6.600;2023-04-19T02:05:15;7.10;99.90
51837;DHT22;38941;53.254;6.600;2023-04-19T02:07:18;7.00;99.90
51837;DHT22;38941;53.254;6.600;2023-04-19T02:09:19;7.10;99.90
51837;DHT22;38941;53.254;6.600;2023-04-19T02:11:20;7.00;99.90
51837;DHT22;38941;53.254;6.600;2023-04-19T02:13:20;7.00;99.90
51837;DHT22;38941;53.254;6.600;2023-04-19T02:15:21;7.50;99.90
51837;DHT22;38941;53.254;6.600;2023-04-19T02:17:25;6.90;99.90
51837;DHT22;38941;53.254;6.600;2023-04-19T02:19:27;6.90;99.90
51837;DHT22;38941;53.254;6.600;2023-04-19T02:21:29;6.90;99.90
51837;DHT22;38941;53.254;6.600;2023-04-19T02:23:30;6.80;99.90
51837;DHT22;38941;53.254;6.600;2023-04-19T02:25:32;6.80;99.90
51837;DHT22;38941;53.254;6.600;2023-04-19T02:27:34;6.80;99.90
51837;DHT22;38941;53.254;6.600;2023-04-19T02:29:35;6.80;99.90
51837;DHT22;38941;53.254;6.600;2023-04-19T02:31:35;6.70;99.90
51837;DHT22;38941;53.254;6.600;2023-04-19T02:33:37;6.70;99.90
51837;DHT22;38941;53.254;6.600;2023-04-19T02:35:38;6.80;99.90
51837;DHT22;38941;53.254;6.600;2023-04-19T02:37:41;6.60;99.90
51837;DHT22;38941;53.254;6.600;2023-04-19T02:39:41;6.70;99.90
51837;DHT22;38941;53.254;6.600;2023-04-19T02:41:42;6.70;99.90
51837;DHT22;38941;53.254;6.600;2023-04-19T02:43:45;7.60;99.90
51837;DHT22;38941;53.254;6.600;2023-04-19T02:45:47;8.90;99.90
51837;DHT22;38941;53.254;6.600;2023-04-19T02:47:49;6.70;99.90
51837;DHT22;38941;53.254;6.600;2023-04-19T02:49:50;6.60;99.90
51837;DHT22;38941;53.254;6.600;2023-04-19T02:51:52;6.70;99.90
51837;DHT22;38941;53.254;6.600;2023-04-19T02:53:53;6.70;99.90
51837;DHT22;38941;53.254;6.600;2023-04-19T02:55:54;6.60;99.90
51837;DHT22;38941;53.254;6.600;2023-04-19T02:57:55;6.50;99.90
51837;DHT22;38941;53.254;6.600;2023-04-19T02:59:56;6.50;99.90
51837;DHT22;38941;53.254;6.600;2023-04-19T03:01:57;6.40;99.90
51837;DHT22;38941;53.254;6.600;2023-04-19T03:03:58;6.40;99.90
51837;DHT22;38941;53.254;6.600;2023-04-19T03:05:59;7.60;99.90
51837;DHT22;38941;53.254;6.600;2023-04-19T03:08:02;6.40;99.90
51837;DHT22;38941;53.254;6.600;2023-04-19T03:10:03;6.30;99.90
51837;DHT22;38941;53.254;6.600;2023-04-19T03:12:06;6.20;99.90
51837;DHT22;38941;53.254;6.600;2023-04-19T03:14:08;5.60;99.90
51837;DHT22;38941;53.254;6.600;2023-04-19T03:16:10;6.20;99.90
51837;DHT22;38941;53.254;6.600;2023-04-19T03:18:11;6.10;99.90
51837;DHT22;38941;53.254;6.600;2023-04-19T03:20:12;6.00;99.90
51837;DHT22;38941;53.254;6.600;2023-04-19T03:22:14;5.90;99.90
51837;DHT22;38941;53.254;6.600;2023-04-19T03:24:18;6.70;99.90
51837;DHT22;38941;53.254;6.600;2023-04-19T03:26:19;6.00;99.90
51837;DHT22;38941;53.254;6.600;2023-04-19T03:28:21;6.20;99.90
51837;DHT22;38941;53.254;6.600;2023-04-19T03:30:22;5.80;99.90
51837;DHT22;38941;53.254;6.600;2023-04-19T03:32:24;5.80;99.90
51837;DHT22;38941;53.254;6.600;2023-04-19T03:34:25;6.30;99.90
51837;DHT22;38941;53.254;6.600;2023-04-19T03:36:27;7.20;99.90
51837;DHT22;38941;53.254;6.600;2023-04-19T03:38:28;5.90;99.90
51837;DHT22;38941;53.254;6.600;2023-04-19T03:40:31;5.60;99.90
51837;DHT22;38941;53.254;6.600;2023-04-19T03:42:33;6.90;99.90
51837;DHT22;38941;53.254;6.600;2023-04-19T03:44:35;5.60;99.90
51837;DHT22;38941;53.254;6.600;2023-04-19T03:46:36;4.60;99.90
51837;DHT22;38941;53.254;6.600;2023-04-19T03:48:37;5.70;99.90
51837;DHT22;38941;53.254;6.600;2023-04-19T03:50:39;6.80;99.90
51837;DHT22;38941;53.254;6.600;2023-04-19T03:52:41;4.30;99.90
51837;DHT22;38941;53.254;6.600;2023-04-19T03:54:42;5.40;99.90
51837;DHT22;38941;53.254;6.600;2023-04-19T03:56:43;5.40;99.90
51837;DHT22;38941;53.254;6.600;2023-04-19T03:58:45;6.80;99.90
51837;DHT22;38941;53.254;6.600;2023-04-19T04:00:46;5.30;99.90
51837;DHT22;38941;53.254;6.600;2023-04-19T04:02:48;6.50;99.90
51837;DHT22;38941;53.254;6.600;2023-04-19T04:04:55;6.10;99.90
51837;DHT22;38941;53.254;6.600;2023-04-19T04:06:55;5.20;99.90
51837;DHT22;38941;53.254;6.600;2023-04-19T04:08:57;5.10;99.90
51837;DHT22;38941;53.254;6.600;2023-04-19T04:10:58;3.60;99.90
51837;DHT22;38941;53.254;6.600;2023-04-19T04:13:00;6.40;99.90
51837;DHT22;38941;53.254;6.600;2023-04-19T04:15:01;5.00;99.90
51837;DHT22;38941;53.254;6.600;2023-04-19T04:17:03;5.00;99.90
51837;DHT22;38941;53.254;6.600;2023-04-19T04:19:04;5.00;99.90
51837;DHT22;38941;53.254;6.600;2023-04-19T04:21:06;4.90;99.90
51837;DHT22;38941;53.254;6.600;2023-04-19T04:23:07;4.90;99.90
51837;DHT22;38941;53.254;6.600;2023-04-19T04:25:11;4.90;99.90
51837;DHT22;38941;53.254;6.600;2023-04-19T04:27:13;4.70;99.90
51837;DHT22;38941;53.254;6.600;2023-04-19T04:29:14;4.80;99.90
51837;DHT22;38941;53.254;6.600;2023-04-19T04:31:19;6.30;99.90
51837;DHT22;38941;53.254;6.600;2023-04-19T04:33:24;5.70;99.90
51837;DHT22;38941;53.254;6.600;2023-04-19T04:35:27;4.70;99.90
51837;DHT22;38941;53.254;6.600;2023-04-19T04:37:34;6.30;99.90
51837;DHT22;38941;53.254;6.600;2023-04-19T04:39:36;5.30;99.90
51837;DHT22;38941;53.254;6.600;2023-04-19T04:41:38;4.60;99.90
51837;DHT22;38941;53.254;6.600;2023-04-19T04:43:41;4.00;99.90
51837;DHT22;38941;53.254;6.600;2023-04-19T04:45:45;5.20;99.90
51837;DHT22;38941;53.254;6.600;2023-04-19T04:47:48;6.00;99.90
51837;DHT22;38941;53.254;6.600;2023-04-19T04:49:55;5.30;99.90
51837;DHT22;38941;53.254;6.600;2023-04-19T04:51:56;4.60;99.90
51837;DHT22;38941;53.254;6.600;2023-04-19T04:53:56;4.60;99.90
51837;DHT22;38941;53.254;6.600;2023-04-19T04:55:59;5.00;99.90
51837;DHT22;38941;53.254;6.600;2023-04-19T04:58:02;5.70;99.90
51837;DHT22;38941;53.254;6.600;2023-04-19T05:00:05;4.70;99.90
51837;DHT22;38941;53.254;6.600;2023-04-19T05:02:16;4.60;99.90
51837;DHT22;38941;53.254;6.600;2023-04-19T05:04:18;4.70;99.90
51837;DHT22;38941;53.254;6.600;2023-04-19T05:06:25;4.70;99.90
51837;DHT22;38941;53.254;6.600;2023-04-19T05:08:26;4.70;99.90
51837;DHT22;38941;53.254;6.600;2023-04-19T05:10:27;3.90;99.90
51837;DHT22;38941;53.254;6.600;2023-04-19T05:12:59;5.60;99.90
51837;DHT22;38941;53.254;6.600;2023-04-19T05:15:00;4.80;99.90
51837;DHT22;38941;53.254;6.600;2023-04-19T05:17:19;5.60;99.90
51837;DHT22;38941;53.254;6.600;2023-04-19T05:22:36;4.80;99.90
51837;DHT22;38941;53.254;6.600;2023-04-19T05:24:40;4.80;99.90
51837;DHT22;38941;53.254;6.600;2023-04-19T05:26:59;4.90;99.90
51837;DHT22;38941;53.254;6.600;2023-04-19T05:29:02;4.90;99.90
51837;DHT22;38941;53.254;6.600;2023-04-19T05:31:03;5.00;99.90
51837;DHT22;38941;53.254;6.600;2023-04-19T05:33:13;5.00;99.90
51837;DHT22;38941;53.254;6.600;2023-04-19T05:35:18;5.00;99.90
51837;DHT22;38941;53.254;6.600;2023-04-19T05:37:21;5.10;99.90
51837;DHT22;38941;53.254;6.600;2023-04-19T05:39:23;5.30;99.90
51837;DHT22;38941;53.254;6.600;2023-04-19T05:41:25;6.20;99.90
51837;DHT22;38941;53.254;6.600;2023-04-19T05:43:27;5.60;99.90
51837;DHT22;38941;53.254;6.600;2023-04-19T05:45:28;3.90;99.90
51837;DHT22;38941;53.254;6.600;2023-04-19T05:47:29;6.50;99.90
51837;DHT22;38941;53.254;6.600;2023-04-19T05:49:30;5.40;99.90
51837;DHT22;38941;53.254;6.600;2023-04-19T05:51:33;5.90;99.90
51837;DHT22;38941;53.254;6.600;2023-04-19T05:53:34;6.40;99.90
51837;DHT22;38941;53.254;6.600;2023-04-19T05:55:35;6.80;99.90
51837;DHT22;38941;53.254;6.600;2023-04-19T05:57:40;7.00;99.90
51837;DHT22;38941;53.254;6.600;2023-04-19T05:59:41;4.60;99.90
51837;DHT22;38941;53.254;6.600;2023-04-19T06:01:42;5.80;99.90
51837;DHT22;38941;53.254;6.600;2023-04-19T06:03:43;5.90;99.90
51837;DHT22;38941;53.254;6.600;2023-04-19T06:05:47;6.20;99.90
51837;DHT22;38941;53.254;6.600;2023-04-19T06:07:49;6.00;99.90
51837;DHT22;38941;53.254;6.600;2023-04-19T06:09:58;6.40;99.90
51837;DHT22;38941;53.254;6.600;2023-04-19T06:11:59;6.40;99.90
51837;DHT22;38941;53.254;6.600;2023-04-19T06:14:02;6.40;99.90
51837;DHT22;38941;53.254;6.600;2023-04-19T06:16:04;6.50;99.90
51837;DHT22;38941;53.254;6.600;2023-04-19T06:18:06;6.60;99.90
51837;DHT22;38941;53.254;6.600;2023-04-19T06:20:09;6.60;99.90
51837;DHT22;38941;53.254;6.600;2023-04-19T06:22:12;6.80;99.90
51837;DHT22;38941;53.254;6.600;2023-04-19T06:24:13;6.80;99.90
51837;DHT22;38941;53.254;6.600;2023-04-19T06:26:14;7.00;99.90
51837;DHT22;38941;53.254;6.600;2023-04-19T06:28:15;7.00;99.90
51837;DHT22;38941;53.254;6.600;2023-04-19T06:30:16;7.20;99.90
51837;DHT22;38941;53.254;6.600;2023-04-19T06:32:16;7.30;99.90
51837;DHT22;38941;53.254;6.600;2023-04-19T06:34:18;7.90;99.90
51837;DHT22;38941;53.254;6.600;2023-04-19T06:36:19;7.50;99.90
51837;DHT22;38941;53.254;6.600;2023-04-19T06:38:21;7.60;99.90
51837;DHT22;38941;53.254;6.600;2023-04-19T06:40:21;7.70;99.90
51837;DHT22;38941;53.254;6.600;2023-04-19T06:42:23;7.80;99.90
51837;DHT22;38941;53.254;6.600;2023-04-19T06:44:25;7.90;99.90
51837;DHT22;38941;53.254;6.600;2023-04-19T06:46:26;8.00;99.90
51837;DHT22;38941;53.254;6.600;2023-04-19T06:48:28;8.10;99.90
51837;DHT22;38941;53.254;6.600;2023-04-19T06:50:31;8.20;99.90
51837;DHT22;38941;53.254;6.600;2023-04-19T06:52:31;8.60;99.90
51837;DHT22;38941;53.254;6.600;2023-04-19T06:54:32;8.50;99.90
51837;DHT22;38941;53.254;6.600;2023-04-19T06:56:45;8.70;99.90
51837;DHT22;38941;53.254;6.600;2023-04-19T06:58:46;8.70;99.90
51837;DHT22;38941;53.254;6.600;2023-04-19T07:00:49;8.80;99.90
51837;DHT22;38941;53.254;6.600;2023-04-19T07:02:51;9.00;99.90
51837;DHT22;38941;53.254;6.600;2023-04-19T07:04:52;9.10;99.90
51837;DHT22;38941;53.254;6.600;2023-04-19T07:06:53;9.20;99.90
51837;DHT22;38941;53.254;6.600;2023-04-19T07:08:53;9.20;99.90
51837;DHT22;38941;53.254;6.600;2023-04-19T07:10:54;9.30;99.90
51837;DHT22;38941;53.254;6.600;2023-04-19T07:12:56;9.40;99.90
51837;DHT22;38941;53.254;6.600;2023-04-19T07:14:56;9.50;99.90
51837;DHT22;38941;53.254;6.600;2023-04-19T07:16:57;9.70;99.90
51837;DHT22;38941;53.254;6.600;2023-04-19T07:18:59;9.70;99.90
51837;DHT22;38941;53.254;6.600;2023-04-19T07:21:00;9.80;99.90
51837;DHT22;38941;53.254;6.600;2023-04-19T07:25:01;10.00;99.90
51837;DHT22;38941;53.254;6.600;2023-04-19T07:27:03;10.10;99.90
51837;DHT22;38941;53.254;6.600;2023-04-19T07:29:03;10.30;99.90
51837;DHT22;38941;53.254;6.600;2023-04-19T07:31:04;10.40;99.70
51837;DHT22;38941;53.254;6.600;2023-04-19T07:33:12;10.50;99.50
51837;DHT22;38941;53.254;6.600;2023-04-19T07:35:13;10.70;98.90
51837;DHT22;38941;53.254;6.600;2023-04-19T07:37:14;9.90;98.70
51837;DHT22;38941;53.254;6.600;2023-04-19T07:39:14;11.00;98.90
51837;DHT22;38941;53.254;6.600;2023-04-19T07:41:15;11.10;98.50
51837;DHT22;38941;53.254;6.600;2023-04-19T07:43:16;11.20;98.20
51837;DHT22;38941;53.254;6.600;2023-04-19T07:45:18;11.40;97.80
51837;DHT22;38941;53.254;6.600;2023-04-19T07:47:19;11.50;97.50
51837;DHT22;38941;53.254;6.600;2023-04-19T07:49:20;11.60;96.90
51837;DHT22;38941;53.254;6.600;2023-04-19T07:51:21;11.80;96.70
51837;DHT22;38941;53.254;6.600;2023-04-19T07:53:25;11.90;96.40
51837;DHT22;38941;53.254;6.600;2023-04-19T07:55:26;12.10;96.20
51837;DHT22;38941;53.254;6.600;2023-04-19T07:57:28;12.20;96.00
51837;DHT22;38941;53.254;6.600;2023-04-19T07:59:30;12.30;95.60
51837;DHT22;38941;53.254;6.600;2023-04-19T08:01:32;11.90;94.90
51837;DHT22;38941;53.254;6.600;2023-04-19T08:03:34;12.50;94.80
51837;DHT22;38941;53.254;6.600;2023-04-19T08:05:37;12.60;94.30
51837;DHT22;38941;53.254;6.600;2023-04-19T08:07:38;12.70;94.30
51837;DHT22;38941;53.254;6.600;2023-04-19T08:09:39;12.80;93.90
51837;DHT22;38941;53.254;6.600;2023-04-19T08:11:40;13.00;93.40
51837;DHT22;38941;53.254;6.600;2023-04-19T08:13:41;13.00;92.90
51837;DHT22;38941;53.254;6.600;2023-04-19T08:15:43;13.20;92.70
51837;DHT22;38941;53.254;6.600;2023-04-19T08:17:44;13.30;92.20
51837;DHT22;38941;53.254;6.600;2023-04-19T08:19:44;13.40;91.60
51837;DHT22;38941;53.254;6.600;2023-04-19T08:21:45;13.40;91.30
51837;DHT22;38941;53.254;6.600;2023-04-19T08:23:46;13.60;91.40
51837;DHT22;38941;53.254;6.600;2023-04-19T08:25:48;13.70;91.00
51837;DHT22;38941;53.254;6.600;2023-04-19T08:27:49;13.70;89.90
51837;DHT22;38941;53.254;6.600;2023-04-19T08:29:49;13.70;90.20
51837;DHT22;38941;53.254;6.600;2023-04-19T08:31:50;13.80;89.90
51837;DHT22;38941;53.254;6.600;2023-04-19T08:33:51;13.90;89.50
51837;DHT22;38941;53.254;6.600;2023-04-19T08:35:52;14.00;88.70
51837;DHT22;38941;53.254;6.600;2023-04-19T08:37:52;14.20;88.30
51837;DHT22;38941;53.254;6.600;2023-04-19T08:39:53;14.20;86.40
51837;DHT22;38941;53.254;6.600;2023-04-19T08:41:55;14.40;86.10
51837;DHT22;38941;53.254;6.600;2023-04-19T08:43:59;14.60;85.90
51837;DHT22;38941;53.254;6.600;2023-04-19T08:46:02;14.80;85.20
51837;DHT22;38941;53.254;6.600;2023-04-19T08:48:04;15.10;84.50
51837;DHT22;38941;53.254;6.600;2023-04-19T08:50:07;15.10;82.60
51837;DHT22;38941;53.254;6.600;2023-04-19T08:52:08;15.30;82.00
51837;DHT22;38941;53.254;6.600;2023-04-19T08:54:10;15.30;80.80
51837;DHT22;38941;53.254;6.600;2023-04-19T08:56:11;15.30;80.30
51837;DHT22;38941;53.254;6.600;2023-04-19T08:58:12;15.30;79.70
51837;DHT22;38941;53.254;6.600;2023-04-19T09:00:13;15.50;79.80
51837;DHT22;38941;53.254;6.600;2023-04-19T09:06:19;15.50;78.70
51837;DHT22;38941;53.254;6.600;2023-04-19T09:08:30;15.80;76.30
51837;DHT22;38941;53.254;6.600;2023-04-19T09:10:31;15.80;73.60
51837;DHT22;38941;53.254;6.600;2023-04-19T09:12:32;15.80;74.60
51837;DHT22;38941;53.254;6.600;2023-04-19T09:14:44;16.00;74.40
51837;DHT22;38941;53.254;6.600;2023-04-19T09:16:47;16.20;73.50
51837;DHT22;38941;53.254;6.600;2023-04-19T09:18:55;16.40;72.80
51837;DHT22;38941;53.254;6.600;2023-04-19T09:20:58;16.70;72.20
51837;DHT22;38941;53.254;6.600;2023-04-19T09:23:05;16.80;71.70
51837;DHT22;38941;53.254;6.600;2023-04-19T09:25:06;16.80;69.90
51837;DHT22;38941;53.254;6.600;2023-04-19T09:27:07;16.80;69.60
51837;DHT22;38941;53.254;6.600;2023-04-19T09:29:15;16.90;69.70
51837;DHT22;38941;53.254;6.600;2023-04-19T09:31:16;17.10;67.60
51837;DHT22;38941;53.254;6.600;2023-04-19T09:33:39;17.20;67.80
51837;DHT22;38941;53.254;6.600;2023-04-19T09:35:45;17.40;65.70
51837;DHT22;38941;53.254;6.600;2023-04-19T09:37:58;17.50;66.60
51837;DHT22;38941;53.254;6.600;2023-04-19T09:40:21;17.60;63.30
51837;DHT22;38941;53.254;6.600;2023-04-19T09:42:22;17.70;61.10
51837;DHT22;38941;53.254;6.600;2023-04-19T09:44:23;17.60;64.10
51837;DHT22;38941;53.254;6.600;2023-04-19T09:46:30;17.80;64.70
51837;DHT22;38941;53.254;6.600;2023-04-19T09:48:31;18.00;62.10
51837;DHT22;38941;53.254;6.600;2023-04-19T09:50:36;18.10;63.20
51837;DHT22;38941;53.254;6.600;2023-04-19T09:52:51;18.20;61.40
51837;DHT22;38941;53.254;6.600;2023-04-19T09:54:52;18.30;61.10
51837;DHT22;38941;53.254;6.600;2023-04-19T09:56:55;18.30;60.70
51837;DHT22;38941;53.254;6.600;2023-04-19T09:58:56;18.40;60.50
51837;DHT22;38941;53.254;6.600;2023-04-19T10:00:57;18.50;60.30
51837;DHT22;38941;53.254;6.600;2023-04-19T10:03:00;18.60;59.60
51837;DHT22;38941;53.254;6.600;2023-04-19T10:05:02;18.70;59.00
51837;DHT22;38941;53.254;6.600;2023-04-19T10:07:05;18.70;57.80
51837;DHT22;38941;53.254;6.600;2023-04-19T10:09:06;18.60;57.60
51837;DHT22;38941;53.254;6.600;2023-04-19T10:11:09;18.80;57.50
51837;DHT22;38941;53.254;6.600;2023-04-19T10:13:11;19.30;56.90
51837;DHT22;38941;53.254;6.600;2023-04-19T10:15:13;19.20;57.40
51837;DHT22;38941;53.254;6.600;2023-04-19T10:17:15;19.40;57.10
51837;DHT22;38941;53.254;6.600;2023-04-19T10:19:19;19.50;56.90
51837;DHT22;38941;53.254;6.600;2023-04-19T10:21:21;19.40;53.90
51837;DHT22;38941;53.254;6.600;2023-04-19T10:23:22;19.40;56.00
51837;DHT22;38941;53.254;6.600;2023-04-19T10:25:32;19.50;55.90
51837;DHT22;38941;53.254;6.600;2023-04-19T10:27:35;19.70;54.60
51837;DHT22;38941;53.254;6.600;2023-04-19T10:30:00;19.80;55.80
51837;DHT22;38941;53.254;6.600;2023-04-19T10:32:05;19.80;53.90
51837;DHT22;38941;53.254;6.600;2023-04-19T10:34:06;19.80;55.50
51837;DHT22;38941;53.254;6.600;2023-04-19T10:36:14;19.70;54.70
51837;DHT22;38941;53.254;6.600;2023-04-19T10:38:19;20.40;53.60
51837;DHT22;38941;53.254;6.600;2023-04-19T10:45:32;19.90;53.30
51837;DHT22;38941;53.254;6.600;2023-04-19T10:47:45;20.10;51.70
51837;DHT22;38941;53.254;6.600;2023-04-19T10:49:46;20.20;52.50
51837;DHT22;38941;53.254;6.600;2023-04-19T10:51:50;20.20;53.70
51837;DHT22;38941;53.254;6.600;2023-04-19T10:53:58;20.20;53.40
51837;DHT22;38941;53.254;6.600;2023-04-19T10:56:00;20.40;52.40
51837;DHT22;38941;53.254;6.600;2023-04-19T10:58:02;20.80;52.60
51837;DHT22;38941;53.254;6.600;2023-04-19T11:00:21;20.30;51.00
51837;DHT22;38941;53.254;6.600;2023-04-19T11:06:32;20.20;51.40
51837;DHT22;38941;53.254;6.600;2023-04-19T11:08:34;20.20;51.80
51837;DHT22;38941;53.254;6.600;2023-04-19T11:10:35;20.20;51.10
51837;DHT22;38941;53.254;6.600;2023-04-19T11:12:42;20.30;51.30
51837;DHT22;38941;53.254;6.600;2023-04-19T11:15:01;20.20;49.90
51837;DHT22;38941;53.254;6.600;2023-04-19T11:17:22;20.10;50.00
51837;DHT22;38941;53.254;6.600;2023-04-19T11:19:26;20.10;48.80
51837;DHT22;38941;53.254;6.600;2023-04-19T11:21:26;20.10;51.00
51837;DHT22;38941;53.254;6.600;2023-04-19T11:23:29;20.20;51.30
51837;DHT22;38941;53.254;6.600;2023-04-19T11:25:29;20.40;51.20
51837;DHT22;38941;53.254;6.600;2023-04-19T12:12:55;20.30;50.60
51837;DHT22;38941;53.254;6.600;2023-04-19T12:14:56;22.30;49.30
51837;DHT22;38941;53.254;6.600;2023-04-19T12:17:06;22.20;49.40
51837;DHT22;38941;53.254;6.600;2023-04-19T12:19:12;22.00;48.30
51837;DHT22;38941;53.254;6.600;2023-04-19T12:21:25;22.10;48.60
51837;DHT22;38941;53.254;6.600;2023-04-19T12:23:26;22.00;48.10
51837;DHT22;38941;53.254;6.600;2023-04-19T12:25:32;22.00;48.90
51837;DHT22;38941;53.254;6.600;2023-04-19T12:27:33;22.10;48.20
51837;DHT22;38941;53.254;6.600;2023-04-19T12:29:35;22.10;48.90
51837;DHT22;38941;53.254;6.600;2023-04-19T12:31:35;22.20;48.70
51837;DHT22;38941;53.254;6.600;2023-04-19T12:33:37;22.30;49.40
51837;DHT22;38941;53.254;6.600;2023-04-19T12:35:38;21.70;49.60
51837;DHT22;38941;53.254;6.600;2023-04-19T12:39:41;22.70;49.80
51837;DHT22;38941;53.254;6.600;2023-04-19T12:41:42;22.40;50.20
51837;DHT22;38941;53.254;6.600;2023-04-19T12:43:43;22.40;49.80
51837;DHT22;38941;53.254;6.600;2023-04-19T12:45:46;22.50;49.70
51837;DHT22;38941;53.254;6.600;2023-04-19T12:47:48;22.70;50.50
51837;DHT22;38941;53.254;6.600;2023-04-19T12:49:49;22.50;50.70
51837;DHT22;38941;53.254;6.600;2023-04-19T12:51:49;22.50;50.50
51837;DHT22;38941;53.254;6.600;2023-04-19T12:53:51;22.60;50.50
51837;DHT22;38941;53.254;6.600;2023-04-19T12:55:52;23.00;50.60
51837;DHT22;38941;53.254;6.600;2023-04-19T12:57:52;23.00;50.30
51837;DHT22;38941;53.254;6.600;2023-04-19T13:26:14;22.80;50.10
51837;DHT22;38941;53.254;6.600;2023-04-19T13:28:16;23.50;48.90
51837;DHT22;38941;53.254;6.600;2023-04-19T13:30:18;23.70;48.60
51837;DHT22;38941;53.254;6.600;2023-04-19T13:32:18;23.90;48.30
51837;DHT22;38941;53.254;6.600;2023-04-19T13:34:20;24.10;48.20
51837;DHT22;38941;53.254;6.600;2023-04-19T13:36:21;24.20;47.60
51837;DHT22;38941;53.254;6.600;2023-04-19T13:38:22;24.10;47.40
51837;DHT22;38941;53.254;6.600;2023-04-19T13:40:24;24.00;47.00
51837;DHT22;38941;53.254;6.600;2023-04-19T13:42:25;24.10;47.50
51837;DHT22;38941;53.254;6.600;2023-04-19T13:44:27;24.00;47.10
51837;DHT22;38941;53.254;6.600;2023-04-19T13:46:28;23.80;47.00
51837;DHT22;38941;53.254;6.600;2023-04-19T13:48:29;23.80;47.10
51837;DHT22;38941;53.254;6.600;2023-04-19T13:50:31;23.70;47.20
51837;DHT22;38941;53.254;6.600;2023-04-19T13:52:31;23.60;47.00
51837;DHT22;38941;53.254;6.600;2023-04-19T13:54:32;23.60;46.80
51837;DHT22;38941;53.254;6.600;2023-04-19T13:56:33;23.70;46.80
51837;DHT22;38941;53.254;6.600;2023-04-19T13:58:35;23.90;46.50
51837;DHT22;38941;53.254;6.600;2023-04-19T14:00:37;24.00;46.10
51837;DHT22;38941;53.254;6.600;2023-04-19T14:02:39;24.10;45.80
51837;DHT22;38941;53.254;6.600;2023-04-19T14:04:40;24.30;45.70
51837;DHT22;38941;53.254;6.600;2023-04-19T14:06:41;24.00;45.10
51837;DHT22;38941;53.254;6.600;2023-04-19T14:08:42;24.00;45.40
51837;DHT22;38941;53.254;6.600;2023-04-19T14:10:43;24.30;45.40
51837;DHT22;38941;53.254;6.600;2023-04-19T14:12:45;24.40;45.00
51837;DHT22;38941;53.254;6.600;2023-04-19T14:14:46;24.60;44.70
51837;DHT22;38941;53.254;6.600;2023-04-19T14:16:47;24.00;44.30
51837;DHT22;38941;53.254;6.600;2023-04-19T14:18:47;24.90;44.50
51837;DHT22;38941;53.254;6.600;2023-04-19T14:20:48;25.20;44.20
51837;DHT22;38941;53.254;6.600;2023-04-19T14:22:49;25.30;43.90
51837;DHT22;38941;53.254;6.600;2023-04-19T14:24:50;25.20;43.60
51837;DHT22;38941;53.254;6.600;2023-04-19T14:26:51;25.10;43.60
51837;DHT22;38941;53.254;6.600;2023-04-19T14:28:52;25.10;44.10
51837;DHT22;38941;53.254;6.600;2023-04-19T14:30:52;25.30;43.40
51837;DHT22;38941;53.254;6.600;2023-04-19T14:32:54;25.40;43.00
51837;DHT22;38941;53.254;6.600;2023-04-19T14:34:55;25.50;42.70